sensor_id;sensor_type;location;lat;lon;timestamp;pressure;altitude;pressure_sealevel;temperature;humidity
37078;BME280;22989;55.998;37.212;2022-09-21T00:01:24;98884.25;;;5.49;98.22
37078;BME280;22989;55.998;37.212;2022-09-21T00:03:58;98890.19;;;5.48;98.35
37078;BME280;22989;55.998;37.212;2022-09-21T00:06:26;98887.53;;;5.44;98.23
37078;BME280;22989;55.998;37.212;2022-09-21T00:08:52;98884.94;;;5.39;98.38
37078;BME280;22989;55.998;37.212;2022-09-21T00:11:20;98884.03;;;5.37;98.14
37078;BME280;22989;55.998;37.212;2022-09-21T00:13:51;98879.78;;;5.36;98.07
37078;BME280;22989;55.998;37.212;2022-09-21T00:16:18;98889.94;;;5.33;98.58
37078;BME280;22989;55.998;37.212;2022-09-21T00:18:43;98888.19;;;5.30;98.16
37078;BME280;22989;55.998;37.212;2022-09-21T00:21:12;98889.03;;;5.28;98.07
37078;BME280;22989;55.998;37.212;2022-09-21T00:23:38;98888.94;;;5.23;98.10
37078;BME280;22989;55.998;37.212;2022-09-21T00:28:34;98890.66;;;5.24;98.12
37078;BME280;22989;55.998;37.212;2022-09-21T00:31:04;98888.16;;;5.29;98.16
37078;BME280;22989;55.998;37.212;2022-09-21T00:33:32;98884.78;;;5.30;98.37
37078;BME280;22989;55.998;37.212;2022-09-21T00:36:03;98894.19;;;5.32;98.33
37078;BME280;22989;55.998;37.212;2022-09-21T00:38:29;98888.25;;;5.33;98.42
37078;BME280;22989;55.998;37.212;2022-09-21T00:40:54;98893.38;;;5.33;98.52
37078;BME280;22989;55.998;37.212;2022-09-21T00:43:20;98897.59;;;5.33;98.69
37078;BME280;22989;55.998;37.212;2022-09-21T00:45:47;98899.34;;;5.37;98.89
37078;BME280;22989;55.998;37.212;2022-09-21T00:48:15;98902.84;;;5.42;98.76
37078;BME280;22989;55.998;37.212;2022-09-21T00:50:45;98897.81;;;5.47;98.99
37078;BME280;22989;55.998;37.212;2022-09-21T00:53:13;98896.97;;;5.48;99.07
37078;BME280;22989;55.998;37.212;2022-09-21T00:55:44;98905.34;;;5.39;98.88
37078;BME280;22989;55.998;37.212;2022-09-21T00:58:15;98906.13;;;5.33;98.95
37078;BME280;22989;55.998;37.212;2022-09-21T01:00:44;98912.06;;;5.34;98.92
37078;BME280;22989;55.998;37.212;2022-09-21T01:03:11;98912.91;;;5.33;98.99
37078;BME280;22989;55.998;37.212;2022-09-21T01:05:37;98908.66;;;5.33;98.85
37078;BME280;22989;55.998;37.212;2022-09-21T01:08:05;98908.72;;;5.36;99.00
37078;BME280;22989;55.998;37.212;2022-09-21T01:13:33;98910.47;;;5.41;99.20
37078;BME280;22989;55.998;37.212;2022-09-21T01:16:14;98913.94;;;5.44;99.21
37078;BME280;22989;55.998;37.212;2022-09-21T01:21:18;98910.44;;;5.39;99.18
37078;BME280;22989;55.998;37.212;2022-09-21T01:31:33;98906.03;;;5.29;98.90
37078;BME280;22989;55.998;37.212;2022-09-21T01:34:08;98908.66;;;5.32;98.86
37078;BME280;22989;55.998;37.212;2022-09-21T01:36:36;98912.91;;;5.33;99.05
37078;BME280;22989;55.998;37.212;2022-09-21T01:39:11;98910.34;;;5.33;99.07
37078;BME280;22989;55.998;37.212;2022-09-21T01:41:40;98912.84;;;5.28;98.91
37078;BME280;22989;55.998;37.212;2022-09-21T01:44:19;98915.38;;;5.27;98.75
37078;BME280;22989;55.998;37.212;2022-09-21T01:46:46;98912.78;;;5.25;98.81
37078;BME280;22989;55.998;37.212;2022-09-21T01:49:23;98910.28;;;5.28;98.74
37078;BME280;22989;55.998;37.212;2022-09-21T01:52:00;98911.13;;;5.27;98.74
37078;BME280;22989;55.998;37.212;2022-09-21T01:54:50;98905.09;;;5.24;98.72
37078;BME280;22989;55.998;37.212;2022-09-21T01:58:32;98906.69;;;5.17;98.40
37078;BME280;22989;55.998;37.212;2022-09-21T02:00:38;98912.56;;;5.13;98.34
37078;BME280;22989;55.998;37.212;2022-09-21T02:03:09;98909.13;;;5.09;98.39
37078;BME280;22989;55.998;37.212;2022-09-21T02:05:37;98915.84;;;5.06;98.29
37078;BME280;22989;55.998;37.212;2022-09-21T02:08:06;98922.59;;;5.03;98.07
37078;BME280;22989;55.998;37.212;2022-09-21T02:10:35;98923.50;;;5.04;98.22
37078;BME280;22989;55.998;37.212;2022-09-21T02:13:05;98925.22;;;5.05;98.15
37078;BME280;22989;55.998;37.212;2022-09-21T02:21:08;98930.13;;;4.94;97.83
37078;BME280;22989;55.998;37.212;2022-09-21T02:24:13;98934.34;;;4.94;97.87
37078;BME280;22989;55.998;37.212;2022-09-21T02:26:38;98926.69;;;4.94;97.88
37078;BME280;22989;55.998;37.212;2022-09-21T02:29:20;98930.16;;;4.96;97.84
37078;BME280;22989;55.998;37.212;2022-09-21T02:36:46;98925.84;;;4.92;97.94
37078;BME280;22989;55.998;37.212;2022-09-21T02:39:18;98927.50;;;4.91;97.60
37078;BME280;22989;55.998;37.212;2022-09-21T02:41:51;98921.53;;;4.89;97.56
37078;BME280;22989;55.998;37.212;2022-09-21T02:44:29;98924.09;;;4.89;97.69
37078;BME280;22989;55.998;37.212;2022-09-21T02:47:03;98923.22;;;4.90;97.53
37078;BME280;22989;55.998;37.212;2022-09-21T02:49:35;98930.13;;;4.94;97.67
37078;BME280;22989;55.998;37.212;2022-09-21T02:52:07;98923.38;;;4.98;97.65
37078;BME280;22989;55.998;37.212;2022-09-21T02:54:36;98929.44;;;5.04;97.63
37078;BME280;22989;55.998;37.212;2022-09-21T02:57:04;98926.09;;;5.09;97.81
37078;BME280;22989;55.998;37.212;2022-09-21T02:59:30;98930.50;;;5.16;97.88
37078;BME280;22989;55.998;37.212;2022-09-21T03:01:56;98929.72;;;5.20;97.89
37078;BME280;22989;55.998;37.212;2022-09-21T03:04:22;98939.16;;;5.26;97.91
37078;BME280;22989;55.998;37.212;2022-09-21T03:06:48;98938.38;;;5.30;97.77
37078;BME280;22989;55.998;37.212;2022-09-21T03:09:13;98934.22;;;5.36;97.85
37078;BME280;22989;55.998;37.212;2022-09-21T03:11:39;98933.53;;;5.45;97.89
37078;BME280;22989;55.998;37.212;2022-09-21T03:14:07;98931.06;;;5.53;97.85
37078;BME280;22989;55.998;37.212;2022-09-21T03:16:34;98938.84;;;5.59;97.93
37078;BME280;22989;55.998;37.212;2022-09-21T03:18:59;98932.16;;;5.67;97.89
37078;BME280;22989;55.998;37.212;2022-09-21T03:21:25;98935.66;;;5.74;97.77
37078;BME280;22989;55.998;37.212;2022-09-21T03:23:51;98933.22;;;5.82;97.85
37078;BME280;22989;55.998;37.212;2022-09-21T03:26:16;98930.81;;;5.91;97.74
37078;BME280;22989;55.998;37.212;2022-09-21T03:28:50;98931.78;;;5.99;97.82
37078;BME280;22989;55.998;37.212;2022-09-21T03:31:16;98930.16;;;6.04;97.29
37078;BME280;22989;55.998;37.212;2022-09-21T03:33:42;98933.66;;;6.13;97.41
37078;BME280;22989;55.998;37.212;2022-09-21T03:36:08;98940.63;;;6.23;97.29
37078;BME280;22989;55.998;37.212;2022-09-21T03:38:34;98933.03;;;6.31;97.11
37078;BME280;22989;55.998;37.212;2022-09-21T03:41:00;98938.25;;;6.38;97.04
37078;BME280;22989;55.998;37.212;2022-09-21T03:43:26;98934.09;;;6.47;96.72
37078;BME280;22989;55.998;37.212;2022-09-21T03:45:52;98941.88;;;6.58;96.67
37078;BME280;22989;55.998;37.212;2022-09-21T03:48:18;98946.28;;;6.69;96.42
37078;BME280;22989;55.998;37.212;2022-09-21T03:50:43;98930.22;;;6.83;96.12
37078;BME280;22989;55.998;37.212;2022-09-21T03:53:10;98939.00;;;7.11;95.97
37078;BME280;22989;55.998;37.212;2022-09-21T03:55:36;98941.16;;;7.62;95.85
37078;BME280;22989;55.998;37.212;2022-09-21T03:58:02;98938.78;;;7.94;95.66
37078;BME280;22989;55.998;37.212;2022-09-21T04:00:28;98935.47;;;8.09;94.99
37078;BME280;22989;55.998;37.212;2022-09-21T04:02:54;98930.38;;;8.14;94.13
37078;BME280;22989;55.998;37.212;2022-09-21T04:05:20;98932.06;;;8.15;93.51
37078;BME280;22989;55.998;37.212;2022-09-21T04:07:47;98932.09;;;8.19;92.74
37078;BME280;22989;55.998;37.212;2022-09-21T04:10:16;98934.69;;;8.27;92.13
37078;BME280;22989;55.998;37.212;2022-09-21T04:12:43;98933.94;;;8.45;91.60
37078;BME280;22989;55.998;37.212;2022-09-21T04:15:11;98932.28;;;8.63;90.98
37078;BME280;22989;55.998;37.212;2022-09-21T04:17:37;98939.16;;;8.68;90.38
37078;BME280;22989;55.998;37.212;2022-09-21T04:20:03;98937.44;;;8.64;89.56
37078;BME280;22989;55.998;37.212;2022-09-21T04:22:29;98927.16;;;8.58;89.10
37078;BME280;22989;55.998;37.212;2022-09-21T04:24:56;98934.84;;;8.58;88.86
37078;BME280;22989;55.998;37.212;2022-09-21T04:27:21;98933.97;;;8.54;88.83
37078;BME280;22989;55.998;37.212;2022-09-21T04:29:48;98945.09;;;8.55;88.79
37078;BME280;22989;55.998;37.212;2022-09-21T04:32:14;98945.09;;;8.53;88.85
37078;BME280;22989;55.998;37.212;2022-09-21T04:34:39;98935.66;;;8.46;88.82
37078;BME280;22989;55.998;37.212;2022-09-21T04:37:05;98943.28;;;8.38;89.06
37078;BME280;22989;55.998;37.212;2022-09-21T04:39:36;98939.78;;;8.24;89.27
37078;BME280;22989;55.998;37.212;2022-09-21T04:42:02;98938.94;;;8.22;89.81
37078;BME280;22989;55.998;37.212;2022-09-21T04:44:29;98941.50;;;8.23;90.28
37078;BME280;22989;55.998;37.212;2022-09-21T04:46:56;98944.06;;;8.23;90.72
37078;BME280;22989;55.998;37.212;2022-09-21T04:49:21;98942.38;;;8.26;91.02
37078;BME280;22989;55.998;37.212;2022-09-21T04:51:47;98946.66;;;8.30;91.27
37078;BME280;22989;55.998;37.212;2022-09-21T04:54:13;98940.72;;;8.35;91.29
37078;BME280;22989;55.998;37.212;2022-09-21T04:56:38;98933.03;;;8.38;91.62
37078;BME280;22989;55.998;37.212;2022-09-21T04:59:04;98939.88;;;8.43;91.65
37078;BME280;22989;55.998;37.212;2022-09-21T05:01:29;98941.66;;;8.50;92.02
37078;BME280;22989;55.998;37.212;2022-09-21T05:03:55;98933.97;;;8.57;92.16
37078;BME280;22989;55.998;37.212;2022-09-21T05:06:30;98934.00;;;8.70;92.24
37078;BME280;22989;55.998;37.212;2022-09-21T05:08:56;98929.78;;;8.87;92.37
37078;BME280;22989;55.998;37.212;2022-09-21T05:11:40;98927.22;;;8.98;92.20
37078;BME280;22989;55.998;37.212;2022-09-21T05:14:06;98921.25;;;8.99;91.41
37078;BME280;22989;55.998;37.212;2022-09-21T05:16:32;98932.38;;;9.03;91.37
37078;BME280;22989;55.998;37.212;2022-09-21T05:18:58;98924.66;;;8.95;91.08
37078;BME280;22989;55.998;37.212;2022-09-21T05:21:23;98928.94;;;8.88;90.83
37078;BME280;22989;55.998;37.212;2022-09-21T05:23:50;98928.94;;;8.84;90.79
37078;BME280;22989;55.998;37.212;2022-09-21T05:26:15;98929.78;;;8.83;90.93
37078;BME280;22989;55.998;37.212;2022-09-21T05:28:41;98931.47;;;8.81;90.86
37078;BME280;22989;55.998;37.212;2022-09-21T05:33:52;98925.53;;;8.88;91.15
37078;BME280;22989;55.998;37.212;2022-09-21T05:36:52;98928.94;;;8.90;91.00
37078;BME280;22989;55.998;37.212;2022-09-21T05:39:22;98930.69;;;9.06;91.38
37078;BME280;22989;55.998;37.212;2022-09-21T05:41:48;98923.84;;;9.19;91.40
37078;BME280;22989;55.998;37.212;2022-09-21T05:44:14;98930.69;;;9.06;90.63
37078;BME280;22989;55.998;37.212;2022-09-21T05:49:26;98942.63;;;8.97;90.71
37078;BME280;22989;55.998;37.212;2022-09-21T06:03:38;98951.25;;;9.40;90.67
37078;BME280;22989;55.998;37.212;2022-09-21T06:06:07;98944.34;;;9.92;90.73
37078;BME280;22989;55.998;37.212;2022-09-21T06:08:33;98941.63;;;10.45;89.90
37078;BME280;22989;55.998;37.212;2022-09-21T06:10:59;98943.91;;;11.03;88.49
37078;BME280;22989;55.998;37.212;2022-09-21T06:13:25;98933.19;;;11.57;86.71
37078;BME280;22989;55.998;37.212;2022-09-21T06:15:51;98929.09;;;12.27;84.66
37078;BME280;22989;55.998;37.212;2022-09-21T06:18:16;98930.44;;;12.55;80.96
37078;BME280;22989;55.998;37.212;2022-09-21T06:20:42;98929.25;;;12.83;78.24
37078;BME280;22989;55.998;37.212;2022-09-21T06:23:10;98938.00;;;12.71;75.44
37078;BME280;22989;55.998;37.212;2022-09-21T06:25:36;98935.69;;;12.51;75.51
37078;BME280;22989;55.998;37.212;2022-09-21T06:28:06;98937.66;;;12.30;75.55
37078;BME280;22989;55.998;37.212;2022-09-21T06:30:32;98937.19;;;11.92;75.75
37078;BME280;22989;55.998;37.212;2022-09-21T06:33:02;98943.41;;;11.71;76.99
37078;BME280;22989;55.998;37.212;2022-09-21T06:35:29;98944.13;;;11.86;78.13
37078;BME280;22989;55.998;37.212;2022-09-21T06:38:04;98952.47;;;12.11;78.16
37078;BME280;22989;55.998;37.212;2022-09-21T06:40:32;98944.59;;;12.25;77.50
37078;BME280;22989;55.998;37.212;2022-09-21T06:42:59;98943.59;;;12.38;77.03
37078;BME280;22989;55.998;37.212;2022-09-21T06:45:27;98945.69;;;12.04;75.51
37078;BME280;22989;55.998;37.212;2022-09-21T06:47:53;98948.66;;;11.59;76.55
37078;BME280;22989;55.998;37.212;2022-09-21T06:50:19;98941.88;;;11.47;78.18
37078;BME280;22989;55.998;37.212;2022-09-21T06:52:45;98947.09;;;11.39;79.04
37078;BME280;22989;55.998;37.212;2022-09-21T06:55:11;98947.13;;;11.36;79.40
37078;BME280;22989;55.998;37.212;2022-09-21T06:57:37;98945.34;;;11.43;80.00
37078;BME280;22989;55.998;37.212;2022-09-21T07:00:05;98940.03;;;11.65;80.11
37078;BME280;22989;55.998;37.212;2022-09-21T07:02:32;98944.28;;;11.64;79.41
37078;BME280;22989;55.998;37.212;2022-09-21T07:04:58;98945.16;;;11.65;79.10
37078;BME280;22989;55.998;37.212;2022-09-21T07:07:24;98944.22;;;11.72;78.87
37078;BME280;22989;55.998;37.212;2022-09-21T07:09:50;98928.56;;;11.93;78.80
37078;BME280;22989;55.998;37.212;2022-09-21T07:12:17;98937.63;;;12.33;78.44
37078;BME280;22989;55.998;37.212;2022-09-21T07:14:42;98923.34;;;12.73;77.08
37078;BME280;22989;55.998;37.212;2022-09-21T07:17:12;98929.72;;;13.09;75.67
37078;BME280;22989;55.998;37.212;2022-09-21T07:19:39;98926.19;;;13.68;74.76
37078;BME280;22989;55.998;37.212;2022-09-21T07:22:06;98925.88;;;13.87;71.16
37078;BME280;22989;55.998;37.212;2022-09-21T07:24:31;98924.16;;;14.31;70.49
37078;BME280;22989;55.998;37.212;2022-09-21T07:26:57;98936.78;;;14.48;68.35
37078;BME280;22989;55.998;37.212;2022-09-21T07:29:23;98937.63;;;14.49;68.04
37078;BME280;22989;55.998;37.212;2022-09-21T07:31:49;98931.13;;;14.29;68.41
37078;BME280;22989;55.998;37.212;2022-09-21T07:34:15;98931.44;;;14.56;68.58
37078;BME280;22989;55.998;37.212;2022-09-21T07:36:41;98933.13;;;14.58;67.41
37078;BME280;22989;55.998;37.212;2022-09-21T07:39:08;98930.91;;;14.40;67.18
37078;BME280;22989;55.998;37.212;2022-09-21T07:41:34;98933.28;;;14.51;67.97
37078;BME280;22989;55.998;37.212;2022-09-21T07:44:01;98937.63;;;14.49;67.26
37078;BME280;22989;55.998;37.212;2022-09-21T07:46:27;98941.16;;;14.44;67.37
37078;BME280;22989;55.998;37.212;2022-09-21T07:48:53;98943.72;;;14.48;67.36
37078;BME280;22989;55.998;37.212;2022-09-21T07:51:19;98952.19;;;14.54;67.62
37078;BME280;22989;55.998;37.212;2022-09-21T07:53:45;98953.66;;;14.69;67.69
37078;BME280;22989;55.998;37.212;2022-09-21T07:56:13;98943.59;;;14.52;66.75
37078;BME280;22989;55.998;37.212;2022-09-21T07:58:39;98957.59;;;14.42;67.18
37078;BME280;22989;55.998;37.212;2022-09-21T08:01:41;98955.50;;;14.17;67.65
37078;BME280;22989;55.998;37.212;2022-09-21T08:04:08;98954.47;;;14.26;68.16
37078;BME280;22989;55.998;37.212;2022-09-21T08:06:36;98955.09;;;14.39;67.86
37078;BME280;22989;55.998;37.212;2022-09-21T08:09:04;98950.72;;;14.42;67.75
37078;BME280;22989;55.998;37.212;2022-09-21T08:11:31;98941.56;;;14.24;68.08
37078;BME280;22989;55.998;37.212;2022-09-21T08:13:59;98947.81;;;14.13;68.80
37078;BME280;22989;55.998;37.212;2022-09-21T08:16:26;98942.31;;;14.30;69.62
37078;BME280;22989;55.998;37.212;2022-09-21T08:18:52;98946.28;;;14.48;68.99
37078;BME280;22989;55.998;37.212;2022-09-21T08:21:18;98940.44;;;14.38;67.95
37078;BME280;22989;55.998;37.212;2022-09-21T08:23:45;98947.91;;;14.08;67.97
37078;BME280;22989;55.998;37.212;2022-09-21T08:26:14;98937.09;;;13.87;68.86
37078;BME280;22989;55.998;37.212;2022-09-21T08:28:48;98940.75;;;13.75;68.69
37078;BME280;22989;55.998;37.212;2022-09-21T08:31:15;98942.31;;;13.86;69.42
37078;BME280;22989;55.998;37.212;2022-09-21T08:33:42;98939.38;;;14.03;69.12
37078;BME280;22989;55.998;37.212;2022-09-21T08:36:08;98936.47;;;14.20;68.69
37078;BME280;22989;55.998;37.212;2022-09-21T08:38:35;98937.50;;;14.11;68.91
37078;BME280;22989;55.998;37.212;2022-09-21T08:41:08;98939.41;;;14.01;69.27
37078;BME280;22989;55.998;37.212;2022-09-21T08:43:42;98936.19;;;13.88;69.38
37078;BME280;22989;55.998;37.212;2022-09-21T08:46:14;98938.22;;;13.72;69.53
37078;BME280;22989;55.998;37.212;2022-09-21T08:48:53;98939.22;;;13.64;69.75
37078;BME280;22989;55.998;37.212;2022-09-21T08:51:23;98928.59;;;13.81;70.06
37078;BME280;22989;55.998;37.212;2022-09-21T08:53:53;98935.34;;;13.88;69.91
37078;BME280;22989;55.998;37.212;2022-09-21T08:56:22;98933.47;;;13.96;69.60
37078;BME280;22989;55.998;37.212;2022-09-21T08:58:48;98928.38;;;13.93;69.41
37078;BME280;22989;55.998;37.212;2022-09-21T09:07:20;98924.44;;;13.72;70.35
37078;BME280;22989;55.998;37.212;2022-09-21T09:20:13;98927.44;;;14.41;68.78
37078;BME280;22989;55.998;37.212;2022-09-21T09:22:43;98920.41;;;14.48;67.66
37078;BME280;22989;55.998;37.212;2022-09-21T09:25:18;98931.75;;;14.40;67.19
37078;BME280;22989;55.998;37.212;2022-09-21T09:27:46;98932.69;;;14.36;67.63
37078;BME280;22989;55.998;37.212;2022-09-21T09:30:19;98927.44;;;14.41;68.26
37078;BME280;22989;55.998;37.212;2022-09-21T09:32:57;98930.25;;;14.29;68.09
37078;BME280;22989;55.998;37.212;2022-09-21T09:51:18;98921.84;;;14.61;67.11
37078;BME280;22989;55.998;37.212;2022-09-21T09:53:44;98908.91;;;14.61;66.33
37078;BME280;22989;55.998;37.212;2022-09-21T09:56:11;98913.97;;;14.67;66.11
37078;BME280;22989;55.998;37.212;2022-09-21T09:58:42;98907.19;;;14.60;65.84
37078;BME280;22989;55.998;37.212;2022-09-21T10:01:36;98909.28;;;14.42;66.17
37078;BME280;22989;55.998;37.212;2022-09-21T10:04:13;98909.28;;;14.42;66.82
37078;BME280;22989;55.998;37.212;2022-09-21T10:06:39;98906.00;;;14.34;66.15
37078;BME280;22989;55.998;37.212;2022-09-21T10:09:30;98914.59;;;14.36;66.02
37078;BME280;22989;55.998;37.212;2022-09-21T10:12:00;98900.13;;;14.26;65.29
37078;BME280;22989;55.998;37.212;2022-09-21T10:14:31;98900.13;;;14.26;66.01
37078;BME280;22989;55.998;37.212;2022-09-21T10:17:06;98898.34;;;14.28;66.26
37078;BME280;22989;55.998;37.212;2022-09-21T10:19:32;98892.75;;;14.07;67.56
37078;BME280;22989;55.998;37.212;2022-09-21T10:22:00;98894.25;;;14.18;68.18
37078;BME280;22989;55.998;37.212;2022-09-21T10:24:36;98900.91;;;14.30;67.77
37078;BME280;22989;55.998;37.212;2022-09-21T10:27:12;98899.06;;;14.36;67.01
37078;BME280;22989;55.998;37.212;2022-09-21T10:32:18;98897.47;;;14.29;65.48
37078;BME280;22989;55.998;37.212;2022-09-21T10:37:34;98895.00;;;13.79;65.92
37078;BME280;22989;55.998;37.212;2022-09-21T10:42:57;98901.75;;;13.86;65.65
37078;BME280;22989;55.998;37.212;2022-09-21T10:45:32;98899.34;;;13.77;65.92
37078;BME280;22989;55.998;37.212;2022-09-21T10:48:15;98897.66;;;13.74;66.02
37078;BME280;22989;55.998;37.212;2022-09-21T10:50:47;98897.03;;;13.63;66.06
37078;BME280;22989;55.998;37.212;2022-09-21T10:53:30;98901.31;;;13.63;66.99
37078;BME280;22989;55.998;37.212;2022-09-21T10:58:25;98901.72;;;13.88;66.50
37078;BME280;22989;55.998;37.212;2022-09-21T11:00:53;98898.91;;;14.00;66.32
37078;BME280;22989;55.998;37.212;2022-09-21T11:05:58;98904.78;;;14.10;65.39
37078;BME280;22989;55.998;37.212;2022-09-21T11:08:40;98907.44;;;14.05;65.36
37078;BME280;22989;55.998;37.212;2022-09-21T11:16:40;98905.03;;;14.40;64.35
37078;BME280;22989;55.998;37.212;2022-09-21T11:20:03;98891.91;;;14.49;64.12
37078;BME280;22989;55.998;37.212;2022-09-21T11:22:25;98901.50;;;14.44;63.57
37078;BME280;22989;55.998;37.212;2022-09-21T11:27:53;98896.19;;;14.49;63.20
37078;BME280;22989;55.998;37.212;2022-09-21T11:30:21;98915.16;;;14.51;63.07
37078;BME280;22989;55.998;37.212;2022-09-21T11:33:03;98903.97;;;14.49;62.09
37078;BME280;22989;55.998;37.212;2022-09-21T11:35:59;98913.56;;;14.45;62.66
37078;BME280;22989;55.998;37.212;2022-09-21T11:38:48;98902.06;;;14.57;62.50
37078;BME280;22989;55.998;37.212;2022-09-21T11:47:33;98891.63;;;14.62;62.10
37078;BME280;22989;55.998;37.212;2022-09-21T12:09:42;98883.66;;;14.29;66.34
37078;BME280;22989;55.998;37.212;2022-09-21T12:15:04;98879.13;;;13.98;67.80
37078;BME280;22989;55.998;37.212;2022-09-21T12:18:03;98879.28;;;13.90;69.36
37078;BME280;22989;55.998;37.212;2022-09-21T12:23:19;98862.66;;;14.02;69.46
37078;BME280;22989;55.998;37.212;2022-09-21T12:25:52;98867.03;;;14.00;68.97
37078;BME280;22989;55.998;37.212;2022-09-21T12:28:24;98857.72;;;13.89;69.40
37078;BME280;22989;55.998;37.212;2022-09-21T12:31:42;98860.06;;;14.02;69.33
37078;BME280;22989;55.998;37.212;2022-09-21T12:33:55;98860.66;;;14.16;69.13
37078;BME280;22989;55.998;37.212;2022-09-21T12:36:34;98854.59;;;14.17;68.48
37078;BME280;22989;55.998;37.212;2022-09-21T12:39:12;98856.81;;;13.92;69.01
37078;BME280;22989;55.998;37.212;2022-09-21T12:41:46;98858.03;;;13.74;69.70
37078;BME280;22989;55.998;37.212;2022-09-21T12:44:31;98859.94;;;13.63;70.07
37078;BME280;22989;55.998;37.212;2022-09-21T12:47:16;98863.50;;;13.57;70.70
37078;BME280;22989;55.998;37.212;2022-09-21T12:49:46;98863.72;;;13.45;70.34
37078;BME280;22989;55.998;37.212;2022-09-21T12:52:24;98872.47;;;13.36;71.12
37078;BME280;22989;55.998;37.212;2022-09-21T13:00:39;98876.63;;;12.90;72.82
37078;BME280;22989;55.998;37.212;2022-09-21T13:03:21;98877.63;;;12.80;73.51
37078;BME280;22989;55.998;37.212;2022-09-21T13:08:53;98878.66;;;12.69;74.27
37078;BME280;22989;55.998;37.212;2022-09-21T13:11:20;98876.16;;;12.63;74.24
37078;BME280;22989;55.998;37.212;2022-09-21T13:13:55;98865.81;;;12.63;75.05
37078;BME280;22989;55.998;37.212;2022-09-21T13:16:33;98857.25;;;12.59;75.43
37078;BME280;22989;55.998;37.212;2022-09-21T13:19:20;98850.28;;;12.66;75.67
37078;BME280;22989;55.998;37.212;2022-09-21T13:24:40;98852.91;;;12.65;75.56
37078;BME280;22989;55.998;37.212;2022-09-21T13:27:08;98859.78;;;12.66;75.83
37078;BME280;22989;55.998;37.212;2022-09-21T13:29:35;98865.00;;;12.61;75.86
37078;BME280;22989;55.998;37.212;2022-09-21T13:32:19;98867.75;;;12.50;75.97
37078;BME280;22989;55.998;37.212;2022-09-21T13:34:46;98863.63;;;12.37;76.37
37078;BME280;22989;55.998;37.212;2022-09-21T13:45:00;98863.88;;;12.17;76.74
37078;BME280;22989;55.998;37.212;2022-09-21T13:47:35;98865.66;;;12.12;76.82
37078;BME280;22989;55.998;37.212;2022-09-21T13:52:45;98867.44;;;12.05;77.10
37078;BME280;22989;55.998;37.212;2022-09-21T13:55:38;98867.47;;;12.02;77.60
37078;BME280;22989;55.998;37.212;2022-09-21T13:58:14;98865.78;;;12.01;77.62
37078;BME280;22989;55.998;37.212;2022-09-21T14:00:54;98864.94;;;11.97;77.34
37078;BME280;22989;55.998;37.212;2022-09-21T14:03:36;98868.41;;;11.95;77.39
37078;BME280;22989;55.998;37.212;2022-09-21T14:08:37;98865.91;;;11.88;77.61
37078;BME280;22989;55.998;37.212;2022-09-21T14:11:09;98866.75;;;11.87;77.70
37078;BME280;22989;55.998;37.212;2022-09-21T14:13:44;98867.66;;;11.85;77.76
37078;BME280;22989;55.998;37.212;2022-09-21T14:25:28;98868.66;;;11.71;78.70
37078;BME280;22989;55.998;37.212;2022-09-21T14:27:58;98866.13;;;11.68;79.02
37078;BME280;22989;55.998;37.212;2022-09-21T14:30:28;98864.41;;;11.64;78.96
37078;BME280;22989;55.998;37.212;2022-09-21T14:35:25;98862.75;;;11.58;79.55
37078;BME280;22989;55.998;37.212;2022-09-21T14:37:56;98859.34;;;11.58;79.90
37078;BME280;22989;55.998;37.212;2022-09-21T14:40:27;98854.19;;;11.58;80.06
37078;BME280;22989;55.998;37.212;2022-09-21T14:42:58;98855.03;;;11.57;80.45
37078;BME280;22989;55.998;37.212;2022-09-21T14:45:57;98861.06;;;11.56;80.78
37078;BME280;22989;55.998;37.212;2022-09-21T14:51:28;98859.41;;;11.50;81.27
37078;BME280;22989;55.998;37.212;2022-09-21T14:59:40;98868.09;;;11.38;81.58
37078;BME280;22989;55.998;37.212;2022-09-21T15:02:18;98862.13;;;11.33;81.75
37078;BME280;22989;55.998;37.212;2022-09-21T15:15:42;98881.53;;;10.64;84.79
37078;BME280;22989;55.998;37.212;2022-09-21T15:18:16;98879.06;;;10.43;85.93
37078;BME280;22989;55.998;37.212;2022-09-21T15:21:00;98888.53;;;10.27;86.92
37078;BME280;22989;55.998;37.212;2022-09-21T15:23:38;98890.28;;;10.14;88.25
37078;BME280;22989;55.998;37.212;2022-09-21T15:26:08;98896.34;;;10.02;89.12
37078;BME280;22989;55.998;37.212;2022-09-21T15:28:42;98907.50;;;10.01;89.83
37078;BME280;22989;55.998;37.212;2022-09-21T15:31:13;98912.66;;;9.98;90.78
37078;BME280;22989;55.998;37.212;2022-09-21T15:33:40;98918.66;;;9.87;91.36
37078;BME280;22989;55.998;37.212;2022-09-21T15:36:07;98917.84;;;9.53;91.33
37078;BME280;22989;55.998;37.212;2022-09-21T15:38:34;98920.44;;;9.19;91.72
37078;BME280;22989;55.998;37.212;2022-09-21T15:41:02;98915.25;;;8.94;92.16
37078;BME280;22989;55.998;37.212;2022-09-21T15:43:31;98889.56;;;8.83;92.72
37078;BME280;22989;55.998;37.212;2022-09-21T15:46:05;98888.75;;;8.89;93.24
37078;BME280;22989;55.998;37.212;2022-09-21T15:48:37;98894.72;;;8.89;93.51
37078;BME280;22989;55.998;37.212;2022-09-21T15:51:30;98898.13;;;8.92;94.16
37078;BME280;22989;55.998;37.212;2022-09-21T15:54:19;98892.16;;;9.00;94.57
37078;BME280;22989;55.998;37.212;2022-09-21T15:56:45;98901.59;;;9.01;94.91
37078;BME280;22989;55.998;37.212;2022-09-21T15:59:16;98906.72;;;9.03;95.20
37078;BME280;22989;55.998;37.212;2022-09-21T16:01:48;98919.53;;;9.07;95.64
37078;BME280;22989;55.998;37.212;2022-09-21T16:04:17;98920.41;;;9.11;96.00
37078;BME280;22989;55.998;37.212;2022-09-21T16:06:47;98931.53;;;9.16;96.66
37078;BME280;22989;55.998;37.212;2022-09-21T16:11:56;98930.69;;;9.31;97.37
37078;BME280;22989;55.998;37.212;2022-09-21T16:14:22;98926.44;;;9.33;97.49
37078;BME280;22989;55.998;37.212;2022-09-21T16:19:40;98925.56;;;9.30;98.04
37078;BME280;22989;55.998;37.212;2022-09-21T16:22:13;98929.81;;;9.29;98.19
37078;BME280;22989;55.998;37.212;2022-09-21T16:24:50;98931.56;;;9.27;98.46